NZOH/OHA METAR and TAF weather

Enter ICAO airport designator
Station Type Date Time Source
NZOH METAR 2021/03/03 21:05 UTC NOAA

NZOH 032105Z 03005KT 10KM -RA SCT008 BKN015 BKN030 17/17 Q1002 BECMG SCT015


Station Type Date Time Source
NZOH Decoded METAR 2021/03/03 21:05 UTC NOAA

Ohakea, New Zealand (NZOH) 40-12S 175-22E 52M
Mar 03, 2021 - 04:05 PM EST / 2021.03.03 2105 UTC
Wind: from the NNE (030 degrees) at 6 MPH (5 KT):0
Sky conditions: mostly cloudy
Weather: light rain
Temperature: 62 F (17 C)
Dew Point: 62 F (17 C)
Relative Humidity: 100%
Pressure (altimeter): 29.59 in. Hg (1002 hPa)
ob: NZOH 032105Z 03005KT 10KM -RA SCT008 BKN015 BKN030 17/17 Q1002 BECMG SCT015
cycle: 21

Station Type Date Time Source
NZOH TAF 2007/12/14 04:59 UTC NOAA

TAF NZOH 140459Z 140606 11020KT 30KM SCT080 BECMH 0911 03008KT
BECMG 2224 27012KT

Example: see airport list